createdAt,value
2018-07-31T00:00:30.417Z,6.37
2018-07-31T00:02:58.722Z,7.70
2018-07-31T00:05:26.953Z,7.25
2018-07-31T00:07:56.943Z,7.25
2018-07-31T00:10:25.360Z,7.25
2018-07-31T00:12:53.645Z,7.20
2018-07-31T00:15:22.012Z,7.90
2018-07-31T00:17:50.405Z,7.40
2018-07-31T00:20:18.729Z,7.45
2018-07-31T00:22:47.007Z,6.78
2018-07-31T00:25:15.293Z,7.20
2018-07-31T00:27:43.592Z,7.20
2018-07-31T00:30:12.014Z,7.22
2018-07-31T00:32:40.321Z,7.45
2018-07-31T00:35:08.637Z,7.15
2018-07-31T00:37:36.905Z,7.10
2018-07-31T00:40:05.332Z,7.30
2018-07-31T00:42:33.604Z,7.35
2018-07-31T00:45:01.917Z,7.55
2018-07-31T00:47:30.310Z,7.28
2018-07-31T00:49:58.552Z,7.58
2018-07-31T00:52:26.992Z,7.22
2018-07-31T00:54:55.266Z,7.10
2018-07-31T00:57:23.782Z,6.78
2018-07-31T00:59:52.198Z,7.75
2018-07-31T01:02:20.505Z,7.42
2018-07-31T01:04:48.881Z,7.25
2018-07-31T01:07:17.177Z,7.17
2018-07-31T01:09:45.493Z,7.30
2018-07-31T01:12:13.749Z,7.37
2018-07-31T01:14:42.030Z,7.20
2018-07-31T01:17:10.428Z,7.53
2018-07-31T01:19:38.799Z,7.28
2018-07-31T01:22:11.285Z,7.08
2018-07-31T01:24:39.586Z,7.12
2018-07-31T01:27:07.890Z,7.28
2018-07-31T01:29:36.249Z,7.30
2018-07-31T01:32:04.858Z,7.25
2018-07-31T01:34:33.143Z,6.95
2018-07-31T01:37:01.548Z,7.78
2018-07-31T01:39:29.989Z,7.53
2018-07-31T01:41:58.241Z,7.67
2018-07-31T01:44:26.511Z,7.17
2018-07-31T01:46:54.902Z,7.45
2018-07-31T01:49:23.153Z,7.25
2018-07-31T01:51:51.421Z,7.42
2018-07-31T01:54:19.692Z,7.60
2018-07-31T01:56:48.093Z,7.40
2018-07-31T01:59:16.380Z,7.37
2018-07-31T02:01:44.704Z,7.92
2018-07-31T02:04:13.102Z,7.72
2018-07-31T02:06:41.342Z,7.40
2018-07-31T02:09:09.729Z,7.20
2018-07-31T02:11:37.992Z,7.50
2018-07-31T02:14:06.325Z,7.78
2018-07-31T02:16:34.664Z,7.22
2018-07-31T02:19:02.913Z,6.97
2018-07-31T02:21:31.393Z,7.08
2018-07-31T02:23:59.711Z,7.70
2018-07-31T02:26:28.073Z,7.35
2018-07-31T02:28:56.433Z,7.30
2018-07-31T02:31:24.849Z,7.22
2018-07-31T02:33:53.266Z,7.50
2018-07-31T02:36:21.566Z,7.28
2018-07-31T02:38:49.858Z,7.70
2018-07-31T02:41:18.143Z,7.33
2018-07-31T02:43:46.481Z,7.58
2018-07-31T02:46:14.893Z,7.33
2018-07-31T02:48:43.185Z,7.70
2018-07-31T02:51:11.526Z,7.47
2018-07-31T02:53:39.913Z,7.62
2018-07-31T02:56:08.419Z,7.72
2018-07-31T02:58:36.819Z,7.50
2018-07-31T03:01:05.173Z,7.17
2018-07-31T03:03:40.265Z,6.90
2018-07-31T03:06:08.666Z,7.17
2018-07-31T03:08:36.973Z,6.97
2018-07-31T03:11:05.313Z,7.30
2018-07-31T03:13:33.700Z,7.00
2018-07-31T03:16:02.105Z,6.95
2018-07-31T03:18:30.480Z,7.67
2018-07-31T03:20:58.875Z,7.60
2018-07-31T03:23:27.196Z,7.72
2018-07-31T03:25:55.454Z,7.20
2018-07-31T03:28:23.730Z,7.58
2018-07-31T03:30:52.033Z,7.30
2018-07-31T03:33:20.316Z,7.40
2018-07-31T03:35:48.717Z,7.83
2018-07-31T03:38:16.996Z,7.37
2018-07-31T03:40:45.855Z,7.47
2018-07-31T03:43:14.269Z,6.85
2018-07-31T03:45:42.664Z,7.75
2018-07-31T03:48:11.106Z,7.50
2018-07-31T03:50:39.502Z,7.90
2018-07-31T03:53:07.798Z,7.65
2018-07-31T03:55:36.087Z,7.78
2018-07-31T03:58:04.419Z,8.03
2018-07-31T04:00:32.685Z,7.70
2018-07-31T04:03:01.165Z,7.72
2018-07-31T04:05:29.475Z,7.80
2018-07-31T04:07:57.889Z,8.10
2018-07-31T04:10:26.243Z,8.65
2018-07-31T04:12:54.661Z,7.67
2018-07-31T04:15:22.945Z,9.13
2018-07-31T04:17:54.369Z,8.93
2018-07-31T04:20:22.781Z,7.92
2018-07-31T04:22:51.157Z,8.45
2018-07-31T04:25:21.868Z,8.80
2018-07-31T04:27:53.128Z,8.48
2018-07-31T04:30:22.304Z,8.35
2018-07-31T04:32:53.514Z,7.85
2018-07-31T04:35:21.868Z,7.92
2018-07-31T04:37:51.041Z,8.28
2018-07-31T04:40:19.465Z,8.38
2018-07-31T04:49:01.920Z,9.25
2018-07-31T04:52:33.310Z,9.10
2018-07-31T04:55:02.399Z,8.43
2018-07-31T04:57:32.595Z,8.38
2018-07-31T05:00:01.259Z,8.43
2018-07-31T05:02:31.569Z,8.25
2018-07-31T05:05:00.312Z,8.73
2018-07-31T05:07:28.996Z,8.88
2018-07-31T05:09:59.562Z,8.70
2018-07-31T05:12:29.613Z,8.40
2018-07-31T05:14:58.107Z,8.33
2018-07-31T05:17:30.303Z,8.83
2018-07-31T05:20:00.472Z,9.08
2018-07-31T05:22:53.292Z,8.43
2018-07-31T05:25:26.401Z,8.90
2018-07-31T05:27:55.928Z,8.28
2018-07-31T05:30:25.064Z,8.40
2018-07-31T05:32:55.221Z,8.38
2018-07-31T05:35:26.988Z,8.03
2018-07-31T05:37:57.450Z,8.35
2018-07-31T05:40:26.821Z,8.43
2018-07-31T05:42:57.602Z,8.23
2018-07-31T05:45:34.129Z,8.18
2018-07-31T05:48:04.163Z,7.87
2018-07-31T05:50:33.942Z,7.78
2018-07-31T05:53:02.543Z,7.60
2018-07-31T05:55:31.821Z,7.90
2018-07-31T05:58:21.399Z,8.05
2018-07-31T06:00:50.072Z,8.03
2018-07-31T06:03:18.679Z,8.30
2018-07-31T06:05:55.028Z,8.05
2018-07-31T06:08:25.471Z,8.10
2018-07-31T06:10:54.099Z,7.70
2018-07-31T06:13:23.486Z,7.47
2018-07-31T06:15:52.008Z,7.90
2018-07-31T06:18:22.227Z,7.45
2018-07-31T06:20:50.710Z,7.58
2018-07-31T06:23:20.157Z,7.37
2018-07-31T06:25:50.971Z,7.55
2018-07-31T06:28:20.521Z,7.12
2018-07-31T06:30:50.002Z,7.35
2018-07-31T06:33:18.359Z,6.58
2018-07-31T06:35:50.003Z,7.20
2018-07-31T06:38:20.581Z,7.08
2018-07-31T06:40:49.649Z,6.55
2018-07-31T06:43:18.636Z,6.65
2018-07-31T06:45:47.244Z,7.00
2018-07-31T06:48:15.930Z,6.75
2018-07-31T06:50:44.362Z,7.22
2018-07-31T06:53:15.917Z,6.65
2018-07-31T06:55:46.536Z,6.42
2018-07-31T06:58:15.055Z,7.15
2018-07-31T07:00:45.479Z,7.37
2018-07-31T07:03:17.480Z,7.03
2018-07-31T07:05:45.961Z,6.97
2018-07-31T07:08:15.434Z,6.53
2018-07-31T07:10:44.001Z,6.70
2018-07-31T07:13:12.551Z,6.62
2018-07-31T07:15:40.895Z,6.20
2018-07-31T07:18:09.831Z,6.75
2018-07-31T07:20:39.470Z,6.47
2018-07-31T07:23:13.554Z,6.40
2018-07-31T07:25:43.476Z,6.67
2018-07-31T07:28:13.123Z,6.50
2018-07-31T07:33:27.242Z,7.08
2018-07-31T07:35:57.725Z,6.50
2018-07-31T07:38:26.875Z,6.92
2018-07-31T07:41:02.551Z,7.40
2018-07-31T07:43:32.257Z,6.30
2018-07-31T07:46:00.978Z,7.22
2018-07-31T07:48:31.447Z,6.70
2018-07-31T07:51:02.086Z,6.70
2018-07-31T07:53:34.581Z,6.40
2018-07-31T07:56:10.235Z,7.08
2018-07-31T07:58:41.237Z,6.17
2018-07-31T08:01:10.703Z,6.78
2018-07-31T08:03:39.206Z,7.30
2018-07-31T08:06:07.914Z,6.90
2018-07-31T08:08:36.695Z,6.78
2018-07-31T08:11:12.432Z,6.80
2018-07-31T08:13:41.298Z,6.10
2018-07-31T08:16:09.704Z,6.58
2018-07-31T08:18:38.041Z,6.17
2018-07-31T08:21:07.306Z,6.72
2018-07-31T08:23:36.942Z,6.72
2018-07-31T08:26:05.548Z,6.28
2018-07-31T08:28:34.833Z,6.28
2018-07-31T08:31:04.077Z,6.20
2018-07-31T08:33:33.125Z,6.28
2018-07-31T08:36:01.636Z,5.75
2018-07-31T08:38:30.141Z,5.78
2018-07-31T08:40:58.619Z,5.80
2018-07-31T08:43:27.780Z,6.15
2018-07-31T08:46:01.005Z,5.80
2018-07-31T08:48:29.577Z,6.03
2018-07-31T08:50:58.083Z,5.72
2018-07-31T08:53:26.597Z,6.00
2018-07-31T08:55:55.126Z,5.60
2018-07-31T08:58:24.521Z,5.62
2018-07-31T09:00:53.106Z,5.35
2018-07-31T09:03:21.741Z,5.45
2018-07-31T09:05:50.237Z,5.00
2018-07-31T09:08:19.318Z,5.60
2018-07-31T09:10:47.692Z,5.50
2018-07-31T09:13:16.280Z,5.10
2018-07-31T09:15:44.769Z,5.00
2018-07-31T09:18:14.250Z,5.28
2018-07-31T09:20:42.715Z,4.72
2018-07-31T09:23:11.134Z,5.10
2018-07-31T09:25:45.832Z,4.95
2018-07-31T09:28:15.893Z,5.17
2018-07-31T09:30:49.593Z,5.40
2018-07-31T09:33:18.104Z,4.95
2018-07-31T09:35:46.955Z,5.20
2018-07-31T09:38:15.414Z,5.40
2018-07-31T09:40:43.917Z,5.53
2018-07-31T09:43:13.402Z,5.05
2018-07-31T09:45:43.049Z,4.53
2018-07-31T09:48:11.932Z,4.83
2018-07-31T09:50:40.450Z,4.85
2018-07-31T09:53:09.347Z,5.53
2018-07-31T09:55:38.992Z,5.25
2018-07-31T09:58:07.395Z,5.40
2018-07-31T10:00:40.949Z,5.45
2018-07-31T10:03:09.439Z,5.22
2018-07-31T10:05:37.944Z,5.37
2018-07-31T10:08:07.003Z,5.40
2018-07-31T10:10:35.666Z,5.33
2018-07-31T10:13:04.520Z,5.37
2018-07-31T10:15:34.286Z,5.65
2018-07-31T10:18:02.764Z,5.80
2018-07-31T10:20:31.157Z,5.22
2018-07-31T10:22:59.661Z,5.12
2018-07-31T10:25:28.099Z,5.45
2018-07-31T10:27:56.578Z,5.37
2018-07-31T10:30:25.114Z,5.75
2018-07-31T10:32:53.718Z,5.40
2018-07-31T10:35:22.820Z,5.20
2018-07-31T10:37:51.554Z,5.47
2018-07-31T10:40:19.977Z,5.40
2018-07-31T10:42:48.399Z,5.03
2018-07-31T10:45:17.516Z,5.12
2018-07-31T10:47:46.657Z,5.40
2018-07-31T10:50:16.095Z,5.95
2018-07-31T10:52:44.603Z,5.70
2018-07-31T10:55:13.595Z,5.62
2018-07-31T10:57:43.256Z,6.00
2018-07-31T11:00:11.665Z,5.33
2018-07-31T11:02:40.667Z,5.58
2018-07-31T11:05:09.259Z,5.53
2018-07-31T11:07:37.542Z,5.12
2018-07-31T11:10:06.220Z,5.42
2018-07-31T11:12:34.580Z,5.70
2018-07-31T11:15:02.970Z,5.58
2018-07-31T11:17:31.269Z,5.70
2018-07-31T11:19:59.859Z,5.80
2018-07-31T11:22:28.181Z,5.87
2018-07-31T11:24:56.491Z,5.85
2018-07-31T11:27:24.853Z,6.30
2018-07-31T11:29:53.161Z,5.70
2018-07-31T11:32:21.582Z,5.75
2018-07-31T11:34:49.988Z,6.10
2018-07-31T11:37:18.307Z,6.00
2018-07-31T11:39:46.620Z,6.47
2018-07-31T11:42:14.939Z,5.60
2018-07-31T11:44:43.285Z,6.30
2018-07-31T11:47:11.889Z,5.65
2018-07-31T11:49:40.290Z,6.28
2018-07-31T11:52:08.699Z,5.62
2018-07-31T11:54:37.146Z,6.17
2018-07-31T11:57:05.486Z,5.70
2018-07-31T11:59:35.999Z,5.80
2018-07-31T12:02:11.085Z,5.45
2018-07-31T12:04:44.667Z,5.85
2018-07-31T12:07:17.402Z,5.55
2018-07-31T12:09:52.132Z,6.17
2018-07-31T12:12:26.990Z,5.35
2018-07-31T12:14:55.330Z,5.72
2018-07-31T12:17:23.630Z,5.95
2018-07-31T12:19:51.938Z,6.53
2018-07-31T12:22:20.249Z,5.85
2018-07-31T12:24:48.611Z,5.78
2018-07-31T12:27:16.946Z,5.83
2018-07-31T12:29:45.303Z,5.80
2018-07-31T12:32:13.644Z,5.80
2018-07-31T12:34:42.012Z,6.03
2018-07-31T12:37:10.411Z,6.40
2018-07-31T12:39:38.743Z,6.15
2018-07-31T12:42:07.158Z,6.45
2018-07-31T12:44:35.477Z,5.92
2018-07-31T12:47:03.806Z,6.45
2018-07-31T12:49:32.113Z,6.15
2018-07-31T12:52:00.457Z,5.62
2018-07-31T12:54:28.763Z,6.28
2018-07-31T12:56:57.102Z,5.30
2018-07-31T12:59:25.538Z,6.17
2018-07-31T13:01:53.891Z,5.42
2018-07-31T13:05:47.122Z,5.72
2018-07-31T13:08:15.655Z,5.53
2018-07-31T13:10:44.105Z,5.75
2018-07-31T13:13:12.529Z,6.08
2018-07-31T13:15:41.003Z,5.55
2018-07-31T13:18:09.305Z,5.53
2018-07-31T13:20:37.875Z,5.45
2018-07-31T13:23:06.351Z,5.03
2018-07-31T13:25:34.931Z,5.35
2018-07-31T13:28:03.278Z,5.40
2018-07-31T13:30:31.626Z,5.72
2018-07-31T13:32:59.962Z,5.67
2018-07-31T13:35:28.309Z,5.78
2018-07-31T13:37:56.606Z,5.53
2018-07-31T13:40:24.940Z,6.25
2018-07-31T13:42:53.292Z,6.12
2018-07-31T13:45:21.589Z,5.30
2018-07-31T13:47:49.901Z,5.97
2018-07-31T13:50:18.270Z,5.60
2018-07-31T13:52:46.620Z,5.30
2018-07-31T13:55:14.983Z,5.33
2018-07-31T13:57:43.278Z,5.50
2018-07-31T14:00:11.665Z,5.78
2018-07-31T14:02:39.986Z,5.62
2018-07-31T14:05:08.328Z,5.58
2018-07-31T14:07:36.839Z,5.35
2018-07-31T14:10:05.562Z,5.00
2018-07-31T14:12:33.868Z,5.33
2018-07-31T14:15:02.160Z,5.60
2018-07-31T14:17:30.582Z,5.22
2018-07-31T14:19:59.048Z,5.05
2018-07-31T14:22:27.487Z,5.35
2018-07-31T14:24:55.806Z,5.60
2018-07-31T14:27:24.142Z,5.40
2018-07-31T14:29:52.491Z,5.83
2018-07-31T14:32:20.836Z,5.78
2018-07-31T14:34:49.139Z,6.22
2018-07-31T14:37:17.464Z,5.92
2018-07-31T14:39:45.767Z,5.80
2018-07-31T14:42:14.120Z,5.83
2018-07-31T14:44:42.478Z,5.72
2018-07-31T14:47:10.827Z,5.87
2018-07-31T14:49:39.137Z,5.70
2018-07-31T14:52:07.454Z,5.58
2018-07-31T14:54:35.754Z,5.17
2018-07-31T14:57:04.145Z,6.00
2018-07-31T14:59:32.468Z,5.87
2018-07-31T15:02:00.805Z,5.47
2018-07-31T15:04:29.123Z,5.58
2018-07-31T15:06:57.463Z,5.72
2018-07-31T15:09:25.786Z,5.78
2018-07-31T15:11:54.145Z,5.70
2018-07-31T15:14:22.443Z,5.83
2018-07-31T15:16:50.771Z,5.75
2018-07-31T15:19:19.068Z,5.50
2018-07-31T15:21:47.414Z,5.75
2018-07-31T15:24:15.723Z,6.12
2018-07-31T15:26:44.052Z,5.30
2018-07-31T15:29:12.380Z,5.60
2018-07-31T15:31:40.703Z,5.53
2018-07-31T15:34:08.998Z,5.60
2018-07-31T15:36:37.325Z,5.90
2018-07-31T15:39:08.674Z,5.72
2018-07-31T15:41:37.047Z,5.47
2018-07-31T15:44:05.395Z,5.78
2018-07-31T15:46:33.715Z,5.65
2018-07-31T15:49:02.013Z,5.50
2018-07-31T15:51:30.351Z,5.90
2018-07-31T15:53:58.711Z,5.83
2018-07-31T15:56:27.098Z,5.80
2018-07-31T15:58:55.629Z,5.65
2018-07-31T16:01:23.934Z,5.42
2018-07-31T16:03:52.256Z,6.20
2018-07-31T16:06:20.609Z,5.65
2018-07-31T16:08:55.537Z,5.20
2018-07-31T16:11:23.963Z,5.80
2018-07-31T16:13:52.288Z,5.85
2018-07-31T16:16:20.609Z,5.42
2018-07-31T16:18:48.928Z,5.70
2018-07-31T16:21:17.242Z,5.30
2018-07-31T16:23:45.725Z,5.50
2018-07-31T16:26:14.048Z,5.70
2018-07-31T16:28:42.380Z,5.47
2018-07-31T16:31:10.739Z,5.72
2018-07-31T16:33:39.098Z,5.85
2018-07-31T16:36:07.583Z,6.00
2018-07-31T16:38:35.945Z,6.15
2018-07-31T16:41:04.297Z,6.17
2018-07-31T16:43:32.839Z,5.70
2018-07-31T16:46:01.495Z,5.70
2018-07-31T16:48:29.811Z,5.92
2018-07-31T16:50:58.140Z,5.22
2018-07-31T16:53:26.629Z,6.40
2018-07-31T16:55:54.997Z,5.87
2018-07-31T16:58:23.326Z,5.55
2018-07-31T17:00:51.795Z,5.72
2018-07-31T17:03:20.217Z,5.33
2018-07-31T17:05:48.575Z,5.40
2018-07-31T17:08:16.892Z,4.70
2018-07-31T17:10:45.271Z,5.60
2018-07-31T17:13:13.610Z,5.75
2018-07-31T17:15:41.928Z,4.95
2018-07-31T17:18:10.265Z,5.17
2018-07-31T17:20:38.634Z,5.30
2018-07-31T17:23:07.195Z,5.10
2018-07-31T17:25:35.574Z,4.97
2018-07-31T17:28:04.064Z,5.08
2018-07-31T17:30:32.396Z,5.45
2018-07-31T17:33:00.726Z,5.50
2018-07-31T17:35:29.093Z,5.10
2018-07-31T17:37:57.717Z,4.62
2018-07-31T17:40:26.172Z,4.78
2018-07-31T17:42:54.511Z,5.00
2018-07-31T17:45:22.847Z,5.20
2018-07-31T17:47:51.663Z,4.60
2018-07-31T17:50:19.959Z,5.40
2018-07-31T17:52:48.467Z,4.80
2018-07-31T17:55:16.741Z,4.60
2018-07-31T17:57:45.113Z,5.83
2018-07-31T18:00:13.455Z,5.15
2018-07-31T18:02:41.800Z,4.78
2018-07-31T18:05:10.263Z,5.08
2018-07-31T18:07:38.612Z,5.35
2018-07-31T18:10:07.175Z,4.75
2018-07-31T18:12:35.581Z,4.65
2018-07-31T18:15:03.942Z,4.72
2018-07-31T18:17:32.250Z,4.90
2018-07-31T18:20:00.590Z,4.53
2018-07-31T18:22:28.985Z,4.35
2018-07-31T18:24:57.278Z,4.40
2018-07-31T18:27:25.978Z,4.60
2018-07-31T18:29:54.702Z,4.15
2018-07-31T18:32:22.994Z,4.33
2018-07-31T18:34:51.936Z,4.42
2018-07-31T18:37:20.275Z,4.37
2018-07-31T18:39:48.678Z,4.40
2018-07-31T18:42:17.002Z,4.60
2018-07-31T18:44:45.317Z,4.40
2018-07-31T18:47:13.613Z,4.40
2018-07-31T18:49:42.155Z,4.47
2018-07-31T18:52:10.481Z,4.37
2018-07-31T18:54:38.900Z,4.00
2018-07-31T18:57:07.341Z,4.47
2018-07-31T18:59:35.771Z,4.17
2018-07-31T19:02:04.146Z,4.40
2018-07-31T19:05:01.654Z,3.87
2018-07-31T19:07:31.394Z,4.08
2018-07-31T19:10:00.108Z,4.03
2018-07-31T19:12:28.434Z,3.92
2018-07-31T19:14:56.951Z,4.40
2018-07-31T19:17:25.371Z,4.60
2018-07-31T19:19:53.694Z,4.30
2018-07-31T19:22:22.107Z,4.00
2018-07-31T19:24:50.500Z,4.30
2018-07-31T19:27:18.805Z,4.85
2018-07-31T19:29:47.398Z,4.20
2018-07-31T19:32:16.019Z,4.10
2018-07-31T19:34:44.375Z,4.40
2018-07-31T19:37:12.803Z,4.50
2018-07-31T19:39:41.319Z,3.80
2018-07-31T19:42:09.879Z,4.08
2018-07-31T19:44:38.420Z,3.95
2018-07-31T19:47:07.406Z,4.20
2018-07-31T19:49:35.971Z,3.87
2018-07-31T19:52:04.586Z,4.03
2018-07-31T19:54:32.942Z,4.15
2018-07-31T19:57:01.279Z,4.10
2018-07-31T19:59:29.688Z,3.80
2018-07-31T20:01:58.152Z,4.10
2018-07-31T20:04:26.668Z,4.15
2018-07-31T20:06:55.268Z,4.22
2018-07-31T20:09:28.446Z,4.30
2018-07-31T20:11:57.755Z,4.40
2018-07-31T20:14:26.566Z,4.33
2018-07-31T20:16:55.858Z,4.60
2018-07-31T20:19:24.251Z,4.33
2018-07-31T20:21:53.046Z,4.17
2018-07-31T20:24:21.450Z,4.30
2018-07-31T20:26:50.862Z,4.55
2018-07-31T20:29:24.513Z,4.75
2018-07-31T20:31:52.883Z,4.67
2018-07-31T20:34:22.334Z,4.35
2018-07-31T20:36:50.743Z,4.90
2018-07-31T20:39:20.378Z,4.45
2018-07-31T20:41:48.836Z,4.53
2018-07-31T20:44:20.610Z,4.47
2018-07-31T20:46:49.153Z,5.25
2018-07-31T20:49:18.368Z,4.60
2018-07-31T20:51:47.011Z,5.47
2018-07-31T20:54:15.454Z,5.00
2018-07-31T20:56:47.815Z,5.22
2018-07-31T20:59:16.183Z,4.80
2018-07-31T21:01:45.380Z,5.45
2018-07-31T21:04:15.915Z,5.78
2018-07-31T21:06:50.086Z,5.22
2018-07-31T21:09:20.820Z,5.05
2018-07-31T21:11:51.506Z,5.05
2018-07-31T21:14:21.278Z,5.28
2018-07-31T21:17:05.535Z,4.85
2018-07-31T21:19:33.950Z,4.97
2018-07-31T21:22:02.332Z,5.05
2018-07-31T21:24:30.622Z,4.65
2018-07-31T21:26:58.962Z,4.90
2018-07-31T21:29:27.254Z,5.60
2018-07-31T21:31:55.590Z,5.33
2018-07-31T21:34:23.898Z,5.15
2018-07-31T21:36:52.227Z,5.28
2018-07-31T21:39:20.577Z,5.05
2018-07-31T21:41:48.960Z,5.83
2018-07-31T21:44:17.328Z,5.05
2018-07-31T21:46:45.676Z,5.25
2018-07-31T21:49:14.007Z,5.10
2018-07-31T21:51:51.797Z,5.60
2018-07-31T21:54:20.093Z,5.45
2018-07-31T21:56:48.551Z,5.30
2018-07-31T21:59:17.998Z,5.53
2018-07-31T22:01:46.319Z,5.20
2018-07-31T22:04:14.610Z,5.60
2018-07-31T22:06:42.930Z,5.60
2018-07-31T22:09:11.247Z,5.75
2018-07-31T22:11:39.607Z,5.75
2018-07-31T22:14:08.223Z,5.67
2018-07-31T22:16:36.549Z,5.92
2018-07-31T22:19:04.854Z,6.22
2018-07-31T22:21:33.186Z,5.65
2018-07-31T22:24:01.497Z,5.55
2018-07-31T22:26:29.782Z,5.45
2018-07-31T22:28:58.138Z,5.30
2018-07-31T22:31:26.445Z,5.72
2018-07-31T22:33:54.746Z,5.55
2018-07-31T22:36:23.120Z,4.87
2018-07-31T22:38:51.406Z,5.53
2018-07-31T22:41:19.755Z,5.75
2018-07-31T22:43:48.057Z,5.00
2018-07-31T22:46:16.350Z,5.70
2018-07-31T22:48:44.647Z,5.80
2018-07-31T22:51:12.970Z,5.00
2018-07-31T22:53:41.252Z,5.33
2018-07-31T22:56:09.539Z,5.95
2018-07-31T22:58:37.864Z,5.65
2018-07-31T23:01:06.215Z,5.53
2018-07-31T23:03:34.531Z,5.58
2018-07-31T23:06:02.986Z,6.65
2018-07-31T23:08:31.294Z,5.90
2018-07-31T23:10:59.592Z,5.45
2018-07-31T23:13:27.895Z,5.45
2018-07-31T23:15:56.200Z,4.90
2018-07-31T23:18:24.527Z,5.30
2018-07-31T23:20:52.896Z,5.33
2018-07-31T23:23:21.210Z,6.00
2018-07-31T23:25:49.534Z,5.20
2018-07-31T23:28:24.646Z,5.22
2018-07-31T23:30:52.984Z,5.12
2018-07-31T23:33:21.339Z,5.10
2018-07-31T23:35:49.662Z,4.78
2018-07-31T23:38:17.959Z,4.87
2018-07-31T23:40:46.258Z,5.03
2018-07-31T23:43:14.581Z,6.05
2018-07-31T23:45:42.883Z,5.97
2018-07-31T23:48:11.206Z,5.42
2018-07-31T23:50:39.547Z,5.37
2018-07-31T23:53:07.942Z,6.05
2018-07-31T23:55:36.231Z,6.20
2018-07-31T23:58:04.561Z,5.30
